Rachel, Nevada Weather observations

Data are for observation ending at time listed.
 Day   Time    Ave.   Ave.  Ave.  Vector   Max.   Stn.    Total    Solar   Ave.  
  of    of     Air    Rel.  Wind   Wind    Wind   Baro.  Precip.   Rad.    Soil  
Year   Day     Temp.  Hum.  Speed  Dir.    Gust   Pres.                    Temp. 
2026   (PST)    F      %     mph   deg.    mph     mb.     in.     W/m2     F   
------------------------------------------------------------------------------
 123   20:50   63.5    25    8.5   248     15.1   845.4    0.00       0    66.6
 123   21:00   63.1    26    7.8   272     14.2   845.2    0.00       0    66.5
 123   21:10   63.2    26    6.5   322     13.1   845.3    0.00       0    66.4
 123   21:20   63.2    27    4.0   159      6.2   845.4    0.00       0    66.3
 123   21:30   62.8    27    8.3   169     24.9   845.6    0.00       0    66.4
 123   21:40   63.1    28   14.3   147     33.9   845.4    0.00       0    66.1
 123   21:50   62.4    30    3.6    84      8.4   845.1    0.00       0    66.1
 123   22:00   62.0    30    3.2    24      5.0   844.9    0.00       0    65.9
 123   22:10   61.5    30    2.5   317      4.2   844.8    0.00       0    65.8
 123   22:20   60.6    31    3.7   340      4.5   844.7    0.00       0    65.7
 123   22:30   59.9    32    3.6    66      6.1   844.8    0.00       0    65.5
 123   22:40   59.7    34   10.1   196     25.1   845.1    0.00       0    65.5
 123   22:50   61.7    31   13.4   251     27.6   844.9    0.00       0    65.7
 123   23:00   60.3    35    7.1   219     12.6   845.4    0.00       0    65.2
 123   23:10   59.8    34    3.2   206      6.5   845.5    0.00       0    65.1
 123   23:20   59.5    36    3.0   174      4.5   845.6    0.00       0    64.8
 123   23:30   58.9    36    4.7   142      7.2   845.7    0.00       0    64.7
 123   23:40   58.8    35    5.0    61      6.6   845.7    0.00       0    64.8
 123   23:50   58.7    36    6.1    18      8.6   845.5    0.00       0    64.6
 124    0:00   58.5    39    9.6    72     15.5   845.6    0.00       0    64.5
 124    0:10   58.7    39   10.9    62     17.0   845.4    0.00       0    64.2
 124    0:20   58.3    40   11.5    77     17.5   845.1    0.00       0    64.4
 124    0:30   56.4    44    6.2    69      9.4   844.8    0.00       0    64.1
 124    0:40   55.7    45    5.5    98      9.7   844.7    0.00       0    64.3
 124    0:50   56.6    42    5.7    61      7.7   844.9    0.00       0    64.0
 124    1:00   55.8    44    2.6    53      5.9   844.9    0.00       0    63.8
 124    1:10   55.6    44    0.7   345      6.6   844.7    0.00       0    63.6
 124    1:20   53.4    48    3.3   330      6.1   844.5    0.00       0    63.6
 124    1:30   53.8    47    3.1   289      8.3   844.5    0.00       0    63.5
 124    1:40   53.1    50    6.2   259      9.3   844.3    0.00       0    63.5
 124    1:50   53.2    52    6.0   271      9.5   844.3    0.00       0    63.1
 124    2:00   53.1    52    5.4   295      6.9   844.1    0.00       0    62.9
 124    2:10   52.6    54    5.0   243      7.9   844.3    0.00       0    63.0
 124    2:20   52.8    54    2.0   228      3.3   844.3    0.00       0    62.8
 124    2:30   52.3    54    1.2   336      3.7   844.2    0.00       0    62.9
 124    2:40   51.1    57    2.9   338      4.5   844.0    0.00       0    62.7
 124    2:50   50.9    58    3.2   264      4.7   844.2    0.00       0    62.4
 124    3:00   50.0    58    1.3   259      3.7   844.1    0.00       0    62.4
 124    3:10   49.3    60    1.6   162      3.4   844.0    0.00       0    62.2
 124    3:20   48.6    59    2.7   113      4.3   844.0    0.00       0    62.2
 124    3:30   47.1    59    1.0    81      4.2   843.8    0.00       0    62.0
 124    3:40   46.9    60    1.9   159      5.7   843.7    0.00       0    61.9
 124    3:50   46.6    62    2.1   178      5.6   843.6    0.00       0    61.8
 124    4:00   46.4    62    2.7   179      4.8   843.3    0.00       0    61.5
 124    4:10   46.3    62    2.6   196      4.9   843.1    0.00       0    61.6
 124    4:20   45.9    62    2.4   198      3.5   843.0    0.00       0    61.2
 124    4:30   45.2    63    2.7   190      4.5   842.9    0.00       0    61.2
 124    4:40   46.2    61    3.6   208      6.4   843.0    0.00       1    61.0
 124    4:50   46.3    61    2.9   198      5.0   843.0    0.00       3    60.7
 124    5:00   46.9    59    3.8   192      5.0   842.9    0.00       6    60.8
 124    5:10   46.2    61    2.9   158      4.5   843.0    0.00      11    60.5
 124    5:20   47.7    59    2.6   194      4.7   842.9    0.00      32    60.4
 124    5:30   47.3    60    4.3   128      6.1   843.3    0.00      68    60.2
 124    5:40   47.7    61    3.8   124      5.6   843.4    0.00      81    60.2
 124    5:50   49.8    57    2.6   159      4.9   843.5    0.00     126    60.0
 124    6:00   52.5    52    1.0   183      2.3   843.8    0.00     153    60.0
 124    6:10   55.5    47    0.7   177      2.3   843.9    0.00     180    60.0
 124    6:20   57.1    44    0.8   228      2.5   844.1    0.00     211    60.0
 124    6:30   58.4    42    0.7   212      2.6   844.2    0.00     238    60.0
 124    6:40   59.8    40    0.7   336      2.4   844.4    0.00     263    60.0
 124    6:50   58.2    43    1.3   326      2.7   844.5    0.00     290    60.1
 124    7:00   60.1    41    0.7   287      2.0   844.7    0.00     315    60.3
 124    7:10   60.7    40    0.9   328      3.9   844.9    0.00     344    60.5
 124    7:20   61.4    38    0.9   319      3.7   845.1    0.00     369    60.5
 124    7:30   62.7    36    1.4   289      4.2   845.3    0.00     393    60.6
 124    7:40   62.3    36    1.1   298      3.7   845.6    0.00     420    61.4
 124    7:50   63.6    34    1.9   313      4.0   845.6    0.00     445    61.2
 124    8:00   63.8    33    1.8   276      4.2   845.6    0.00     471    61.5
 124    8:10   64.0    31    9.7   160     20.5   845.5    0.00     498    61.6
 124    8:20   63.6    30   14.1   164     19.3   845.4    0.00     527    62.2
 124    8:30   64.1    29   13.9   163     20.7   845.3    0.00     549    62.6
 124    8:40   64.5    28   15.4   165     23.3   845.2    0.00     570    63.0
 124    8:50   64.6    27   17.4   162     22.9   845.2    0.00     592    63.4
 124    9:00   64.9    26   17.5   153     23.4   845.2    0.00     613    63.6
 124    9:10   65.0    26   15.5   166     21.0   845.2    0.00     625    64.1
 124    9:20   65.6    25   15.3   184     24.8   845.2    0.00     636    64.5
 124    9:30   66.0    25   16.0   172     30.8   845.2    0.00     678    64.8
 124    9:40   65.4    24   13.4   157     21.6   845.2    0.00     631    65.3
 124    9:50   66.5    23   15.8   187     21.8   845.2    0.00     731    65.5
 124   10:00   65.9    24   12.3   176     22.0   845.3    0.00     420    66.0
 124   10:10   66.9    22   17.1   177     24.3   845.0    0.00     774    66.3
 124   10:20   67.4    22   16.2   172     24.3   845.0    0.00     791    66.9
 124   10:30   67.0    22   16.9   164     23.6   845.3    0.00     801    67.3
 124   10:40   66.1    22   14.1   185     24.4   845.3    0.00     632    67.6
 124   10:50   66.5    21   14.9   190     25.5   845.2    0.00     519    68.2
 124   11:00   67.0    21   16.3   182     32.3   845.2    0.00     855    68.4
 124   11:10   67.4    20   12.8   166     25.1   845.1    0.00     876    68.9
 124   11:20   67.6    20   15.3   173     25.5   845.1    0.00     767    69.4
 124   11:30   67.3    20   13.8   150     23.5   844.9    0.00     450    69.5
 124   11:40   68.2    19   13.7   185     22.7   844.6    0.00     587    70.1
 124   11:50   66.9    20   14.9   178     25.9   844.5    0.00     359    70.5
 124   12:00   67.5    20   13.5   162     23.8   844.4    0.00     875    70.8
 124   12:10   67.9    18   15.2   196     23.8   844.4    0.00     793    70.9
 124   12:20   69.2    17   16.8   201     24.8   844.5    0.00     834    71.3
 124   12:30   68.0    18   16.0   206     28.8   844.5    0.00     655    71.4
 124   12:40   68.5    18   12.5   209     21.1   844.6    0.00     740    71.4
 124   12:50   68.7    19   12.3   196     23.3   844.6    0.00     724    71.2
 124   13:00   68.7    19   16.4   235     27.5   844.5    0.00     405    71.2
 124   13:10   68.3    18   17.4   216     37.2   844.5    0.00     504    71.3
 124   13:20   67.9    18   12.1   203     21.4   844.5    0.00     501    71.1
 124   13:30   68.8    16   16.4   217     26.8   844.4    0.00     729    71.1
 124   13:40   69.1    14   17.2   231     26.2   844.4    0.00     702    70.9
 124   13:50   69.1    15   18.2   238     27.8   844.3    0.00     686    70.8
 124   14:00   68.6    14   18.4   239     30.5   844.3    0.00     667    70.7
 124   14:10   69.1    13   17.7   237     31.0   844.3    0.00     664    70.6
 124   14:20   68.8    12   19.3   221     29.0   844.2    0.00     647    70.3
 124   14:30   68.4    14   16.5   228     25.4   844.3    0.00     616    70.4
 124   14:40   67.9    15   17.8   228     28.4   844.4    0.00     583    70.6
 124   14:50   67.2    16   19.4   242     30.1   844.3    0.00     560    70.2
 124   15:00   67.7    16   17.9   235     28.9   844.3    0.00     537    70.0
 124   15:10   67.2    16   16.9   233     26.7   844.2    0.00     514    70.0
 124   15:20   67.8    15   16.3   249     26.5   844.2    0.00     488    69.9
 124   15:30   67.3    16   17.4   241     26.7   844.2    0.00     462    69.9
 124   15:40   67.4    14   14.3   240     23.5   844.2    0.00     439    69.9
 124   15:50   67.2    15   16.2   241     25.5   844.1    0.00     414    69.6
 124   16:00   66.5    16   12.5   239     26.2   844.3    0.00     389    69.5
 124   16:10   67.0    16   15.0   235     28.6   844.1    0.00     362    69.5
 124   16:20   66.8    18   16.0   239     24.0   844.1    0.00     344    69.3
 124   16:30   66.2    18   18.1   233     28.4   844.1    0.00     312    69.5
 124   16:40   65.9    18   14.2   230     22.3   844.1    0.00     281    69.3
 124   16:50   65.8    17   16.2   235     25.7   844.0    0.00     255    69.1
 124   17:00   65.7    16   14.7   228     22.3   844.0    0.00     226    68.9
 124   17:10   65.2    17   12.8   219     22.3   843.9    0.00     200    68.8
 124   17:20   65.1    18   14.3   226     24.8   843.8    0.00     172    68.7
 124   17:30   64.6    19   14.3   247     21.3   843.7    0.00     146    68.4
 124   17:40   64.2    19   13.9   241     23.5   843.7    0.00     119    68.3
 124   17:50   63.4    19   15.1   243     22.5   843.6    0.00      94    68.3
 124   18:00   62.7    19   17.4   246     24.0   843.4    0.00      64    68.1
 124   18:10   61.9    20   14.7   238     22.5   843.3    0.00      34    67.9
 124   18:20   60.9    21   15.0   243     23.6   843.2    0.00      18    67.9
 124   18:30   60.0    21   15.4   240     23.7   843.1    0.00       8    67.6
 124   18:40   59.4    23   15.2   244     24.0   843.1    0.00       3    67.5
 124   18:50   58.8    25   13.4   246     20.7   843.4    0.00       2    67.2
 124   19:00   58.4    26   13.7   243     22.3   843.2    0.00       0    66.9
 124   19:10   58.0    26   12.7   245     18.9   843.1    0.00       0    66.8
 124   19:20   57.3    28   13.2   231     21.1   843.1    0.00       0    67.0
 124   19:30   57.2    29   14.1   238     21.5   843.5    0.00       0    66.6
 124   19:40   57.0    30   12.9   234     19.1   843.6    0.00       0    66.7
 124   19:50   56.7    30   12.2   230     22.4   843.7    0.00       0    66.3
 124   20:00   56.2    30   13.6   226     21.2   843.7    0.00       0    66.1
 124   20:10   56.0    30   14.2   231     22.7   843.7    0.00       0    65.9
 124   20:20   55.7    30   14.6   232     23.1   843.9    0.00       0    65.8
 124   20:30   55.4    30   15.1   234     23.1   843.9    0.00       0    65.3
 124   20:40   55.0    29   14.4   233     22.1   843.9    0.00       0    65.3

Return to St. George, Utah graphs page.


Western Regional Climate Center,wrcc@dri.edu